sensor_id;sensor_type;location;lat;lon;timestamp;temperature;humidity
10702;DHT22;5402;50.004;8.246;2023-12-22T00:02:20;4.60;99.90
10702;DHT22;5402;50.004;8.246;2023-12-22T00:04:48;4.60;99.90
10702;DHT22;5402;50.004;8.246;2023-12-22T00:07:16;4.60;99.90
10702;DHT22;5402;50.004;8.246;2023-12-22T00:09:45;4.60;99.90
10702;DHT22;5402;50.004;8.246;2023-12-22T00:12:12;4.60;99.90
10702;DHT22;5402;50.004;8.246;2023-12-22T00:14:38;4.60;99.90
10702;DHT22;5402;50.004;8.246;2023-12-22T00:17:06;4.60;99.90
10702;DHT22;5402;50.004;8.246;2023-12-22T00:19:32;4.60;99.90
10702;DHT22;5402;50.004;8.246;2023-12-22T00:21:59;4.50;99.90
10702;DHT22;5402;50.004;8.246;2023-12-22T00:24:27;4.60;99.90
10702;DHT22;5402;50.004;8.246;2023-12-22T00:26:54;4.60;99.90
10702;DHT22;5402;50.004;8.246;2023-12-22T00:29:21;4.60;99.90
10702;DHT22;5402;50.004;8.246;2023-12-22T00:31:48;4.60;99.90
10702;DHT22;5402;50.004;8.246;2023-12-22T00:34:14;4.60;99.90
10702;DHT22;5402;50.004;8.246;2023-12-22T00:36:41;4.60;99.90
10702;DHT22;5402;50.004;8.246;2023-12-22T00:39:08;4.70;99.90
10702;DHT22;5402;50.004;8.246;2023-12-22T00:41:36;4.70;99.90
10702;DHT22;5402;50.004;8.246;2023-12-22T00:44:03;4.80;99.90
10702;DHT22;5402;50.004;8.246;2023-12-22T00:46:29;4.90;99.90
10702;DHT22;5402;50.004;8.246;2023-12-22T00:48:56;5.10;99.90
10702;DHT22;5402;50.004;8.246;2023-12-22T00:51:23;5.20;99.90
10702;DHT22;5402;50.004;8.246;2023-12-22T00:53:50;5.20;99.90
10702;DHT22;5402;50.004;8.246;2023-12-22T00:56:16;5.10;99.90
10702;DHT22;5402;50.004;8.246;2023-12-22T00:58:44;5.20;99.90
10702;DHT22;5402;50.004;8.246;2023-12-22T01:01:11;5.20;99.90
10702;DHT22;5402;50.004;8.246;2023-12-22T01:03:38;5.20;99.90
10702;DHT22;5402;50.004;8.246;2023-12-22T01:06:05;5.20;99.90
10702;DHT22;5402;50.004;8.246;2023-12-22T01:08:31;5.20;99.90
10702;DHT22;5402;50.004;8.246;2023-12-22T01:10:58;5.20;99.90
10702;DHT22;5402;50.004;8.246;2023-12-22T01:13:25;5.20;99.90
10702;DHT22;5402;50.004;8.246;2023-12-22T01:15:53;5.20;99.90
10702;DHT22;5402;50.004;8.246;2023-12-22T01:18:19;5.20;99.90
10702;DHT22;5402;50.004;8.246;2023-12-22T01:20:46;5.20;99.90
10702;DHT22;5402;50.004;8.246;2023-12-22T01:23:14;5.20;99.90
10702;DHT22;5402;50.004;8.246;2023-12-22T01:25:41;5.20;99.90
10702;DHT22;5402;50.004;8.246;2023-12-22T01:28:08;5.20;99.90
10702;DHT22;5402;50.004;8.246;2023-12-22T01:30:34;5.30;99.90
10702;DHT22;5402;50.004;8.246;2023-12-22T01:33:03;5.30;99.90
10702;DHT22;5402;50.004;8.246;2023-12-22T01:35:30;5.30;99.90
10702;DHT22;5402;50.004;8.246;2023-12-22T01:37:57;5.40;99.90
10702;DHT22;5402;50.004;8.246;2023-12-22T01:40:24;5.40;99.90
10702;DHT22;5402;50.004;8.246;2023-12-22T01:42:51;5.30;99.90
10702;DHT22;5402;50.004;8.246;2023-12-22T01:45:17;5.30;99.90
10702;DHT22;5402;50.004;8.246;2023-12-22T01:47:45;5.20;99.90
10702;DHT22;5402;50.004;8.246;2023-12-22T01:50:14;5.20;99.90
10702;DHT22;5402;50.004;8.246;2023-12-22T01:52:42;5.20;99.90
10702;DHT22;5402;50.004;8.246;2023-12-22T01:55:11;6.00;99.90
10702;DHT22;5402;50.004;8.246;2023-12-22T01:57:45;5.10;99.90
10702;DHT22;5402;50.004;8.246;2023-12-22T02:00:19;5.10;99.90
10702;DHT22;5402;50.004;8.246;2023-12-22T02:02:52;4.90;99.90
10702;DHT22;5402;50.004;8.246;2023-12-22T02:05:20;5.10;99.90
10702;DHT22;5402;50.004;8.246;2023-12-22T02:07:48;5.10;99.90
10702;DHT22;5402;50.004;8.246;2023-12-22T02:10:15;5.10;99.90
10702;DHT22;5402;50.004;8.246;2023-12-22T02:12:42;5.10;99.90
10702;DHT22;5402;50.004;8.246;2023-12-22T02:15:09;5.10;99.90
10702;DHT22;5402;50.004;8.246;2023-12-22T02:17:42;5.10;99.90
10702;DHT22;5402;50.004;8.246;2023-12-22T02:20:11;5.10;99.90
10702;DHT22;5402;50.004;8.246;2023-12-22T02:22:39;5.10;99.90
10702;DHT22;5402;50.004;8.246;2023-12-22T02:25:07;5.10;99.90
10702;DHT22;5402;50.004;8.246;2023-12-22T02:27:39;5.10;99.90
10702;DHT22;5402;50.004;8.246;2023-12-22T02:30:09;5.10;99.90
10702;DHT22;5402;50.004;8.246;2023-12-22T02:32:42;5.10;99.90
10702;DHT22;5402;50.004;8.246;2023-12-22T02:35:11;5.10;99.90
10702;DHT22;5402;50.004;8.246;2023-12-22T02:37:41;5.10;99.90
10702;DHT22;5402;50.004;8.246;2023-12-22T02:40:09;5.10;99.90
10702;DHT22;5402;50.004;8.246;2023-12-22T02:42:37;5.10;99.90
10702;DHT22;5402;50.004;8.246;2023-12-22T02:45:04;5.10;99.90
10702;DHT22;5402;50.004;8.246;2023-12-22T02:47:32;5.10;99.90
10702;DHT22;5402;50.004;8.246;2023-12-22T02:49:58;5.20;99.90
10702;DHT22;5402;50.004;8.246;2023-12-22T02:52:25;5.20;99.90
10702;DHT22;5402;50.004;8.246;2023-12-22T02:54:53;5.10;99.90
10702;DHT22;5402;50.004;8.246;2023-12-22T02:57:20;5.10;99.90
10702;DHT22;5402;50.004;8.246;2023-12-22T02:59:47;5.50;99.90
10702;DHT22;5402;50.004;8.246;2023-12-22T03:02:13;5.10;99.90
10702;DHT22;5402;50.004;8.246;2023-12-22T03:04:40;5.20;99.90
10702;DHT22;5402;50.004;8.246;2023-12-22T03:07:07;5.20;99.90
10702;DHT22;5402;50.004;8.246;2023-12-22T03:09:33;5.20;99.90
10702;DHT22;5402;50.004;8.246;2023-12-22T03:12:02;5.20;99.90
10702;DHT22;5402;50.004;8.246;2023-12-22T03:14:29;5.30;99.90
10702;DHT22;5402;50.004;8.246;2023-12-22T03:16:56;5.40;99.90
10702;DHT22;5402;50.004;8.246;2023-12-22T03:19:23;5.40;99.90
10702;DHT22;5402;50.004;8.246;2023-12-22T03:21:50;5.50;99.90
10702;DHT22;5402;50.004;8.246;2023-12-22T03:24:16;5.50;99.90
10702;DHT22;5402;50.004;8.246;2023-12-22T03:26:44;5.60;99.90
10702;DHT22;5402;50.004;8.246;2023-12-22T03:29:12;5.60;99.90
10702;DHT22;5402;50.004;8.246;2023-12-22T03:31:39;5.70;99.90
10702;DHT22;5402;50.004;8.246;2023-12-22T03:34:06;5.70;99.90
10702;DHT22;5402;50.004;8.246;2023-12-22T03:36:33;5.70;99.90
10702;DHT22;5402;50.004;8.246;2023-12-22T03:39:00;5.70;99.90
10702;DHT22;5402;50.004;8.246;2023-12-22T03:41:28;5.70;99.90
10702;DHT22;5402;50.004;8.246;2023-12-22T03:43:54;5.70;99.90
10702;DHT22;5402;50.004;8.246;2023-12-22T03:46:23;5.70;99.90
10702;DHT22;5402;50.004;8.246;2023-12-22T03:48:49;5.70;99.90
10702;DHT22;5402;50.004;8.246;2023-12-22T03:51:16;5.70;99.90
10702;DHT22;5402;50.004;8.246;2023-12-22T03:53:43;5.70;99.90
10702;DHT22;5402;50.004;8.246;2023-12-22T03:56:10;5.70;99.90
10702;DHT22;5402;50.004;8.246;2023-12-22T03:58:37;5.70;99.90
10702;DHT22;5402;50.004;8.246;2023-12-22T04:01:04;5.60;99.90
10702;DHT22;5402;50.004;8.246;2023-12-22T04:03:34;5.70;99.90
10702;DHT22;5402;50.004;8.246;2023-12-22T04:06:02;5.60;99.90
10702;DHT22;5402;50.004;8.246;2023-12-22T04:08:28;5.60;99.90
10702;DHT22;5402;50.004;8.246;2023-12-22T04:10:55;5.60;99.90
10702;DHT22;5402;50.004;8.246;2023-12-22T04:13:22;5.70;99.90
10702;DHT22;5402;50.004;8.246;2023-12-22T04:15:48;5.70;99.90
10702;DHT22;5402;50.004;8.246;2023-12-22T04:18:15;5.70;99.90
10702;DHT22;5402;50.004;8.246;2023-12-22T04:20:43;5.70;99.90
10702;DHT22;5402;50.004;8.246;2023-12-22T04:23:10;5.70;99.90
10702;DHT22;5402;50.004;8.246;2023-12-22T04:25:36;5.70;99.90
10702;DHT22;5402;50.004;8.246;2023-12-22T04:28:03;5.70;99.90
10702;DHT22;5402;50.004;8.246;2023-12-22T04:30:31;5.60;99.90
10702;DHT22;5402;50.004;8.246;2023-12-22T04:32:58;5.70;99.90
10702;DHT22;5402;50.004;8.246;2023-12-22T04:35:24;5.70;99.90
10702;DHT22;5402;50.004;8.246;2023-12-22T04:37:52;5.70;99.90
10702;DHT22;5402;50.004;8.246;2023-12-22T04:40:19;5.70;99.90
10702;DHT22;5402;50.004;8.246;2023-12-22T04:42:46;5.80;99.90
10702;DHT22;5402;50.004;8.246;2023-12-22T04:45:13;5.80;99.90
10702;DHT22;5402;50.004;8.246;2023-12-22T04:47:39;5.80;99.90
10702;DHT22;5402;50.004;8.246;2023-12-22T04:50:06;5.80;99.90
10702;DHT22;5402;50.004;8.246;2023-12-22T04:52:33;5.80;99.90
10702;DHT22;5402;50.004;8.246;2023-12-22T04:55:01;5.80;99.90
10702;DHT22;5402;50.004;8.246;2023-12-22T04:57:28;5.90;99.90
10702;DHT22;5402;50.004;8.246;2023-12-22T04:59:55;5.90;99.90
10702;DHT22;5402;50.004;8.246;2023-12-22T05:02:21;5.90;99.90
10702;DHT22;5402;50.004;8.246;2023-12-22T05:04:48;5.90;99.90
10702;DHT22;5402;50.004;8.246;2023-12-22T05:07:15;6.00;99.90
10702;DHT22;5402;50.004;8.246;2023-12-22T05:09:42;6.00;99.90
10702;DHT22;5402;50.004;8.246;2023-12-22T05:12:10;6.00;99.90
10702;DHT22;5402;50.004;8.246;2023-12-22T05:14:37;5.90;99.90
10702;DHT22;5402;50.004;8.246;2023-12-22T05:17:04;5.90;99.90
10702;DHT22;5402;50.004;8.246;2023-12-22T05:19:30;5.80;99.90
10702;DHT22;5402;50.004;8.246;2023-12-22T05:21:57;5.80;99.90
10702;DHT22;5402;50.004;8.246;2023-12-22T05:24:25;5.80;99.90
10702;DHT22;5402;50.004;8.246;2023-12-22T05:26:52;5.80;99.90
10702;DHT22;5402;50.004;8.246;2023-12-22T05:29:20;5.70;99.90
10702;DHT22;5402;50.004;8.246;2023-12-22T05:31:47;5.70;99.90
10702;DHT22;5402;50.004;8.246;2023-12-22T05:34:13;5.70;99.90
10702;DHT22;5402;50.004;8.246;2023-12-22T05:36:40;5.70;99.90
10702;DHT22;5402;50.004;8.246;2023-12-22T05:39:07;5.70;99.90
10702;DHT22;5402;50.004;8.246;2023-12-22T05:41:35;5.70;99.90
10702;DHT22;5402;50.004;8.246;2023-12-22T05:44:03;5.80;99.90
10702;DHT22;5402;50.004;8.246;2023-12-22T05:46:35;5.80;99.90
10702;DHT22;5402;50.004;8.246;2023-12-22T05:49:02;5.80;99.90
10702;DHT22;5402;50.004;8.246;2023-12-22T05:51:29;5.80;99.90
10702;DHT22;5402;50.004;8.246;2023-12-22T05:53:56;6.00;99.90
10702;DHT22;5402;50.004;8.246;2023-12-22T05:56:22;5.80;99.90
10702;DHT22;5402;50.004;8.246;2023-12-22T05:58:49;5.80;99.90
10702;DHT22;5402;50.004;8.246;2023-12-22T06:01:16;5.80;99.90
10702;DHT22;5402;50.004;8.246;2023-12-22T06:03:45;5.70;99.90
10702;DHT22;5402;50.004;8.246;2023-12-22T06:06:12;5.70;99.90
10702;DHT22;5402;50.004;8.246;2023-12-22T06:08:40;5.70;99.90
10702;DHT22;5402;50.004;8.246;2023-12-22T06:11:06;5.60;99.90
10702;DHT22;5402;50.004;8.246;2023-12-22T06:13:33;5.60;99.90
10702;DHT22;5402;50.004;8.246;2023-12-22T06:16:00;5.60;99.90
10702;DHT22;5402;50.004;8.246;2023-12-22T06:18:27;5.70;99.90
10702;DHT22;5402;50.004;8.246;2023-12-22T06:20:55;5.70;99.90
10702;DHT22;5402;50.004;8.246;2023-12-22T06:23:21;5.70;99.90
10702;DHT22;5402;50.004;8.246;2023-12-22T06:25:48;5.80;99.90
10702;DHT22;5402;50.004;8.246;2023-12-22T06:28:15;5.80;99.90
10702;DHT22;5402;50.004;8.246;2023-12-22T06:30:42;5.90;99.90
10702;DHT22;5402;50.004;8.246;2023-12-22T06:33:09;6.00;99.90
10702;DHT22;5402;50.004;8.246;2023-12-22T06:35:36;6.10;99.90
10702;DHT22;5402;50.004;8.246;2023-12-22T06:38:04;6.10;99.90
10702;DHT22;5402;50.004;8.246;2023-12-22T06:40:31;6.40;99.90
10702;DHT22;5402;50.004;8.246;2023-12-22T06:42:58;6.50;99.90
10702;DHT22;5402;50.004;8.246;2023-12-22T06:45:25;6.60;99.90
10702;DHT22;5402;50.004;8.246;2023-12-22T06:47:52;6.70;99.90
10702;DHT22;5402;50.004;8.246;2023-12-22T06:50:18;6.80;99.90
10702;DHT22;5402;50.004;8.246;2023-12-22T06:52:45;6.80;99.90
10702;DHT22;5402;50.004;8.246;2023-12-22T06:55:13;6.90;99.90
10702;DHT22;5402;50.004;8.246;2023-12-22T06:57:40;7.20;99.90
10702;DHT22;5402;50.004;8.246;2023-12-22T07:00:08;7.00;99.90
10702;DHT22;5402;50.004;8.246;2023-12-22T07:02:34;7.00;99.90
10702;DHT22;5402;50.004;8.246;2023-12-22T07:05:34;7.30;99.90
10702;DHT22;5402;50.004;8.246;2023-12-22T07:08:05;7.20;99.90
10702;DHT22;5402;50.004;8.246;2023-12-22T07:10:33;7.40;99.90
10702;DHT22;5402;50.004;8.246;2023-12-22T07:13:00;7.40;99.90
10702;DHT22;5402;50.004;8.246;2023-12-22T07:15:27;7.50;99.90
10702;DHT22;5402;50.004;8.246;2023-12-22T07:17:54;7.50;99.90
10702;DHT22;5402;50.004;8.246;2023-12-22T07:20:20;7.60;99.90
10702;DHT22;5402;50.004;8.246;2023-12-22T07:22:47;7.60;99.90
10702;DHT22;5402;50.004;8.246;2023-12-22T07:25:14;7.60;99.90
10702;DHT22;5402;50.004;8.246;2023-12-22T07:27:42;7.50;99.90
10702;DHT22;5402;50.004;8.246;2023-12-22T07:30:10;7.40;99.90
10702;DHT22;5402;50.004;8.246;2023-12-22T07:32:42;7.40;99.90
10702;DHT22;5402;50.004;8.246;2023-12-22T07:35:09;7.40;99.90
10702;DHT22;5402;50.004;8.246;2023-12-22T07:37:36;7.50;99.90
10702;DHT22;5402;50.004;8.246;2023-12-22T07:40:03;7.60;99.90
10702;DHT22;5402;50.004;8.246;2023-12-22T07:42:32;7.70;99.90
10702;DHT22;5402;50.004;8.246;2023-12-22T07:45:00;7.70;99.90
10702;DHT22;5402;50.004;8.246;2023-12-22T07:47:28;7.70;99.90
10702;DHT22;5402;50.004;8.246;2023-12-22T07:49:55;7.80;99.90
10702;DHT22;5402;50.004;8.246;2023-12-22T07:52:22;8.00;99.90
10702;DHT22;5402;50.004;8.246;2023-12-22T07:54:48;8.00;99.90
10702;DHT22;5402;50.004;8.246;2023-12-22T07:57:15;8.10;99.90
10702;DHT22;5402;50.004;8.246;2023-12-22T07:59:42;8.00;99.90
10702;DHT22;5402;50.004;8.246;2023-12-22T08:02:10;8.20;99.90
10702;DHT22;5402;50.004;8.246;2023-12-22T08:04:37;8.10;99.90
10702;DHT22;5402;50.004;8.246;2023-12-22T08:07:04;8.10;99.90
10702;DHT22;5402;50.004;8.246;2023-12-22T08:09:31;8.10;99.90
10702;DHT22;5402;50.004;8.246;2023-12-22T08:11:58;8.00;99.90
10702;DHT22;5402;50.004;8.246;2023-12-22T08:14:25;8.00;99.90
10702;DHT22;5402;50.004;8.246;2023-12-22T08:16:51;7.80;99.90
10702;DHT22;5402;50.004;8.246;2023-12-22T08:19:19;7.70;99.90
10702;DHT22;5402;50.004;8.246;2023-12-22T08:21:46;7.40;99.90
10702;DHT22;5402;50.004;8.246;2023-12-22T08:24:13;7.10;99.90
10702;DHT22;5402;50.004;8.246;2023-12-22T08:26:40;7.00;99.90
10702;DHT22;5402;50.004;8.246;2023-12-22T08:29:06;6.90;99.90
10702;DHT22;5402;50.004;8.246;2023-12-22T08:31:33;6.90;99.90
10702;DHT22;5402;50.004;8.246;2023-12-22T08:34:00;6.80;99.90
10702;DHT22;5402;50.004;8.246;2023-12-22T08:36:28;6.80;99.90
10702;DHT22;5402;50.004;8.246;2023-12-22T08:38:55;6.80;99.90
10702;DHT22;5402;50.004;8.246;2023-12-22T08:41:21;6.80;99.90
10702;DHT22;5402;50.004;8.246;2023-12-22T08:43:48;6.80;99.90
10702;DHT22;5402;50.004;8.246;2023-12-22T08:46:15;6.90;99.90
10702;DHT22;5402;50.004;8.246;2023-12-22T08:48:42;6.80;99.90
10702;DHT22;5402;50.004;8.246;2023-12-22T08:51:09;6.80;99.90
10702;DHT22;5402;50.004;8.246;2023-12-22T08:53:37;6.80;99.90
10702;DHT22;5402;50.004;8.246;2023-12-22T08:56:04;6.80;99.90
10702;DHT22;5402;50.004;8.246;2023-12-22T08:58:32;6.80;99.90
10702;DHT22;5402;50.004;8.246;2023-12-22T09:00:59;6.90;99.90
10702;DHT22;5402;50.004;8.246;2023-12-22T09:03:26;6.90;99.90
10702;DHT22;5402;50.004;8.246;2023-12-22T09:05:53;6.90;99.90
10702;DHT22;5402;50.004;8.246;2023-12-22T09:08:20;6.90;99.90
10702;DHT22;5402;50.004;8.246;2023-12-22T09:10:48;6.90;99.90
10702;DHT22;5402;50.004;8.246;2023-12-22T09:13:15;6.90;99.90
10702;DHT22;5402;50.004;8.246;2023-12-22T09:15:42;6.90;99.90
10702;DHT22;5402;50.004;8.246;2023-12-22T09:18:12;7.00;99.90
10702;DHT22;5402;50.004;8.246;2023-12-22T09:20:39;7.10;99.90
10702;DHT22;5402;50.004;8.246;2023-12-22T09:23:06;7.10;99.90
10702;DHT22;5402;50.004;8.246;2023-12-22T09:25:33;7.20;99.90
10702;DHT22;5402;50.004;8.246;2023-12-22T09:28:01;7.20;99.90
10702;DHT22;5402;50.004;8.246;2023-12-22T09:30:28;7.20;99.90
10702;DHT22;5402;50.004;8.246;2023-12-22T09:32:55;7.20;99.90
10702;DHT22;5402;50.004;8.246;2023-12-22T09:35:21;7.20;99.90
10702;DHT22;5402;50.004;8.246;2023-12-22T09:37:50;7.30;99.90
10702;DHT22;5402;50.004;8.246;2023-12-22T09:40:16;7.30;99.90
10702;DHT22;5402;50.004;8.246;2023-12-22T09:42:43;7.40;99.90
10702;DHT22;5402;50.004;8.246;2023-12-22T09:45:13;7.40;99.90
10702;DHT22;5402;50.004;8.246;2023-12-22T09:47:44;7.40;99.90
10702;DHT22;5402;50.004;8.246;2023-12-22T09:50:12;7.50;99.90
10702;DHT22;5402;50.004;8.246;2023-12-22T09:52:40;7.60;99.90
10702;DHT22;5402;50.004;8.246;2023-12-22T09:55:09;7.70;99.90
10702;DHT22;5402;50.004;8.246;2023-12-22T09:57:37;7.80;99.90
10702;DHT22;5402;50.004;8.246;2023-12-22T10:00:06;7.90;99.90
10702;DHT22;5402;50.004;8.246;2023-12-22T10:02:36;7.90;99.90
10702;DHT22;5402;50.004;8.246;2023-12-22T10:05:03;7.90;99.90
10702;DHT22;5402;50.004;8.246;2023-12-22T10:07:30;7.90;99.90
10702;DHT22;5402;50.004;8.246;2023-12-22T10:09:59;8.00;99.90
10702;DHT22;5402;50.004;8.246;2023-12-22T10:12:29;8.10;99.90
10702;DHT22;5402;50.004;8.246;2023-12-22T10:14:57;8.10;99.90
10702;DHT22;5402;50.004;8.246;2023-12-22T10:17:25;8.20;99.90
10702;DHT22;5402;50.004;8.246;2023-12-22T10:19:53;8.30;99.90
10702;DHT22;5402;50.004;8.246;2023-12-22T10:22:20;8.40;99.90
10702;DHT22;5402;50.004;8.246;2023-12-22T10:24:49;8.50;99.90
10702;DHT22;5402;50.004;8.246;2023-12-22T10:27:17;8.60;99.90
10702;DHT22;5402;50.004;8.246;2023-12-22T10:29:48;8.60;99.90
10702;DHT22;5402;50.004;8.246;2023-12-22T10:32:15;8.60;99.90
10702;DHT22;5402;50.004;8.246;2023-12-22T10:34:42;8.70;99.90
10702;DHT22;5402;50.004;8.246;2023-12-22T10:37:10;8.60;99.90
10702;DHT22;5402;50.004;8.246;2023-12-22T10:39:38;8.70;99.90
10702;DHT22;5402;50.004;8.246;2023-12-22T10:42:06;8.70;99.90
10702;DHT22;5402;50.004;8.246;2023-12-22T10:44:32;8.80;99.90
10702;DHT22;5402;50.004;8.246;2023-12-22T10:47:00;8.80;99.90
10702;DHT22;5402;50.004;8.246;2023-12-22T10:49:28;8.90;99.90
10702;DHT22;5402;50.004;8.246;2023-12-22T10:51:55;8.90;99.90
10702;DHT22;5402;50.004;8.246;2023-12-22T10:54:23;8.90;99.90
10702;DHT22;5402;50.004;8.246;2023-12-22T10:56:49;8.80;99.90
10702;DHT22;5402;50.004;8.246;2023-12-22T10:59:18;8.90;99.90
10702;DHT22;5402;50.004;8.246;2023-12-22T11:01:48;8.80;99.90
10702;DHT22;5402;50.004;8.246;2023-12-22T11:04:20;9.00;99.90
10702;DHT22;5402;50.004;8.246;2023-12-22T11:06:49;8.90;99.90
10702;DHT22;5402;50.004;8.246;2023-12-22T11:09:23;9.00;99.90
10702;DHT22;5402;50.004;8.246;2023-12-22T11:11:51;9.00;99.90
10702;DHT22;5402;50.004;8.246;2023-12-22T11:14:19;9.00;99.90
10702;DHT22;5402;50.004;8.246;2023-12-22T11:16:47;9.00;99.90
10702;DHT22;5402;50.004;8.246;2023-12-22T11:19:15;9.10;99.90
10702;DHT22;5402;50.004;8.246;2023-12-22T11:21:43;9.00;99.90
10702;DHT22;5402;50.004;8.246;2023-12-22T11:24:11;9.00;99.90
10702;DHT22;5402;50.004;8.246;2023-12-22T11:26:41;8.90;99.90
10702;DHT22;5402;50.004;8.246;2023-12-22T11:29:09;8.90;99.90
10702;DHT22;5402;50.004;8.246;2023-12-22T11:31:37;8.90;99.90
10702;DHT22;5402;50.004;8.246;2023-12-22T11:34:05;9.00;99.90
10702;DHT22;5402;50.004;8.246;2023-12-22T11:36:34;8.90;99.90
10702;DHT22;5402;50.004;8.246;2023-12-22T11:39:02;8.90;99.90
10702;DHT22;5402;50.004;8.246;2023-12-22T11:41:32;8.90;99.90
10702;DHT22;5402;50.004;8.246;2023-12-22T11:44:01;8.80;99.90
10702;DHT22;5402;50.004;8.246;2023-12-22T11:46:30;8.70;99.90
10702;DHT22;5402;50.004;8.246;2023-12-22T11:48:58;8.70;99.90
10702;DHT22;5402;50.004;8.246;2023-12-22T11:51:31;8.70;99.90
10702;DHT22;5402;50.004;8.246;2023-12-22T11:54:00;8.60;99.90
10702;DHT22;5402;50.004;8.246;2023-12-22T11:56:28;8.60;99.90
10702;DHT22;5402;50.004;8.246;2023-12-22T11:58:55;8.60;99.90
10702;DHT22;5402;50.004;8.246;2023-12-22T12:01:27;8.60;99.90
10702;DHT22;5402;50.004;8.246;2023-12-22T12:03:58;8.60;99.90
10702;DHT22;5402;50.004;8.246;2023-12-22T12:06:32;8.70;99.90
10702;DHT22;5402;50.004;8.246;2023-12-22T12:09:04;8.70;99.90
10702;DHT22;5402;50.004;8.246;2023-12-22T12:12:10;8.70;99.90
10702;DHT22;5402;50.004;8.246;2023-12-22T12:14:41;8.70;99.90
10702;DHT22;5402;50.004;8.246;2023-12-22T12:17:09;8.70;99.90
10702;DHT22;5402;50.004;8.246;2023-12-22T12:19:37;8.70;99.90
10702;DHT22;5402;50.004;8.246;2023-12-22T12:22:05;8.70;99.90
10702;DHT22;5402;50.004;8.246;2023-12-22T12:24:32;8.80;99.90
10702;DHT22;5402;50.004;8.246;2023-12-22T12:26:59;8.80;99.90
10702;DHT22;5402;50.004;8.246;2023-12-22T12:29:26;8.80;99.90
10702;DHT22;5402;50.004;8.246;2023-12-22T12:32:02;8.90;99.90
10702;DHT22;5402;50.004;8.246;2023-12-22T12:34:31;8.90;99.90
10702;DHT22;5402;50.004;8.246;2023-12-22T12:36:58;9.00;99.90
10702;DHT22;5402;50.004;8.246;2023-12-22T12:39:30;9.10;99.90
10702;DHT22;5402;50.004;8.246;2023-12-22T12:41:59;9.10;99.90
10702;DHT22;5402;50.004;8.246;2023-12-22T12:44:27;9.10;99.90
10702;DHT22;5402;50.004;8.246;2023-12-22T12:46:53;9.10;99.90
10702;DHT22;5402;50.004;8.246;2023-12-22T12:49:20;9.10;99.90
10702;DHT22;5402;50.004;8.246;2023-12-22T12:51:49;9.20;99.90
10702;DHT22;5402;50.004;8.246;2023-12-22T12:54:16;9.30;99.90
10702;DHT22;5402;50.004;8.246;2023-12-22T12:56:44;9.40;99.90
10702;DHT22;5402;50.004;8.246;2023-12-22T12:59:13;9.40;99.90
10702;DHT22;5402;50.004;8.246;2023-12-22T13:01:40;9.50;99.90
10702;DHT22;5402;50.004;8.246;2023-12-22T13:04:07;9.60;99.90
10702;DHT22;5402;50.004;8.246;2023-12-22T13:06:33;9.60;99.90
10702;DHT22;5402;50.004;8.246;2023-12-22T13:09:01;9.70;99.90
10702;DHT22;5402;50.004;8.246;2023-12-22T13:11:30;9.90;99.90
10702;DHT22;5402;50.004;8.246;2023-12-22T13:13:57;9.80;99.90
10702;DHT22;5402;50.004;8.246;2023-12-22T13:16:25;9.90;99.90
10702;DHT22;5402;50.004;8.246;2023-12-22T13:18:55;10.00;99.90
10702;DHT22;5402;50.004;8.246;2023-12-22T13:21:22;10.00;99.90
10702;DHT22;5402;50.004;8.246;2023-12-22T13:26:57;10.10;99.90
10702;DHT22;5402;50.004;8.246;2023-12-22T13:29:25;10.20;99.90
10702;DHT22;5402;50.004;8.246;2023-12-22T13:31:51;10.20;99.90
10702;DHT22;5402;50.004;8.246;2023-12-22T13:34:18;10.30;99.90
10702;DHT22;5402;50.004;8.246;2023-12-22T13:36:45;10.30;99.90
10702;DHT22;5402;50.004;8.246;2023-12-22T13:39:12;10.30;99.90
10702;DHT22;5402;50.004;8.246;2023-12-22T13:41:39;10.20;99.90
10702;DHT22;5402;50.004;8.246;2023-12-22T13:44:08;10.30;99.90
10702;DHT22;5402;50.004;8.246;2023-12-22T13:46:35;10.20;99.90
10702;DHT22;5402;50.004;8.246;2023-12-22T13:49:02;10.30;99.90
10702;DHT22;5402;50.004;8.246;2023-12-22T13:51:38;10.30;99.90
10702;DHT22;5402;50.004;8.246;2023-12-22T13:54:05;10.30;99.90
10702;DHT22;5402;50.004;8.246;2023-12-22T13:56:33;10.40;99.90
10702;DHT22;5402;50.004;8.246;2023-12-22T13:59:02;10.40;99.90
10702;DHT22;5402;50.004;8.246;2023-12-22T14:01:30;10.30;99.90
10702;DHT22;5402;50.004;8.246;2023-12-22T14:03:58;10.40;99.90
10702;DHT22;5402;50.004;8.246;2023-12-22T14:06:25;10.40;99.90
10702;DHT22;5402;50.004;8.246;2023-12-22T14:08:52;10.40;99.90
10702;DHT22;5402;50.004;8.246;2023-12-22T14:11:18;10.40;99.90
10702;DHT22;5402;50.004;8.246;2023-12-22T14:13:45;10.40;99.90
10702;DHT22;5402;50.004;8.246;2023-12-22T14:16:12;10.40;99.90
10702;DHT22;5402;50.004;8.246;2023-12-22T14:18:40;10.30;99.90
10702;DHT22;5402;50.004;8.246;2023-12-22T14:21:07;10.30;99.90
10702;DHT22;5402;50.004;8.246;2023-12-22T14:23:33;10.30;99.90
10702;DHT22;5402;50.004;8.246;2023-12-22T14:26:00;10.20;99.90
10702;DHT22;5402;50.004;8.246;2023-12-22T14:28:27;10.20;99.90
10702;DHT22;5402;50.004;8.246;2023-12-22T14:30:54;10.20;99.90
10702;DHT22;5402;50.004;8.246;2023-12-22T14:33:21;10.20;99.90
10702;DHT22;5402;50.004;8.246;2023-12-22T14:35:49;10.20;99.90
10702;DHT22;5402;50.004;8.246;2023-12-22T14:38:15;10.30;99.90
10702;DHT22;5402;50.004;8.246;2023-12-22T14:40:42;10.30;99.90
10702;DHT22;5402;50.004;8.246;2023-12-22T14:43:09;10.30;99.90
10702;DHT22;5402;50.004;8.246;2023-12-22T14:45:35;10.40;99.90
10702;DHT22;5402;50.004;8.246;2023-12-22T14:48:03;10.30;99.90
10702;DHT22;5402;50.004;8.246;2023-12-22T14:50:30;10.40;99.90
10702;DHT22;5402;50.004;8.246;2023-12-22T14:52:58;10.30;99.90
10702;DHT22;5402;50.004;8.246;2023-12-22T14:55:24;10.30;99.90
10702;DHT22;5402;50.004;8.246;2023-12-22T14:57:51;10.20;99.90
10702;DHT22;5402;50.004;8.246;2023-12-22T15:00:18;10.30;99.90
10702;DHT22;5402;50.004;8.246;2023-12-22T15:02:45;10.30;99.90
10702;DHT22;5402;50.004;8.246;2023-12-22T15:05:12;10.30;99.90
10702;DHT22;5402;50.004;8.246;2023-12-22T15:07:38;10.30;99.90
10702;DHT22;5402;50.004;8.246;2023-12-22T15:10:07;10.40;99.90
10702;DHT22;5402;50.004;8.246;2023-12-22T15:12:34;10.30;99.90
10702;DHT22;5402;50.004;8.246;2023-12-22T15:15:05;10.30;99.90
10702;DHT22;5402;50.004;8.246;2023-12-22T15:17:31;10.40;99.90
10702;DHT22;5402;50.004;8.246;2023-12-22T15:19:58;10.40;99.90
10702;DHT22;5402;50.004;8.246;2023-12-22T15:22:25;10.40;99.90
10702;DHT22;5402;50.004;8.246;2023-12-22T15:24:53;10.40;99.90
10702;DHT22;5402;50.004;8.246;2023-12-22T15:27:21;10.40;99.90
10702;DHT22;5402;50.004;8.246;2023-12-22T15:29:47;10.50;99.90
10702;DHT22;5402;50.004;8.246;2023-12-22T15:32:14;10.30;99.90
10702;DHT22;5402;50.004;8.246;2023-12-22T15:34:41;10.30;99.90
10702;DHT22;5402;50.004;8.246;2023-12-22T15:37:08;10.40;99.90
10702;DHT22;5402;50.004;8.246;2023-12-22T15:39:36;10.40;99.90
10702;DHT22;5402;50.004;8.246;2023-12-22T15:42:03;10.40;99.90
10702;DHT22;5402;50.004;8.246;2023-12-22T15:44:31;10.40;99.90
10702;DHT22;5402;50.004;8.246;2023-12-22T15:46:57;10.30;99.90
10702;DHT22;5402;50.004;8.246;2023-12-22T15:49:24;10.20;99.90
10702;DHT22;5402;50.004;8.246;2023-12-22T15:51:51;10.40;99.90
10702;DHT22;5402;50.004;8.246;2023-12-22T15:54:21;10.30;99.90
10702;DHT22;5402;50.004;8.246;2023-12-22T15:56:48;10.40;99.90
10702;DHT22;5402;50.004;8.246;2023-12-22T15:59:14;10.40;99.90
10702;DHT22;5402;50.004;8.246;2023-12-22T16:01:46;10.50;99.90
10702;DHT22;5402;50.004;8.246;2023-12-22T16:04:13;10.60;99.90
10702;DHT22;5402;50.004;8.246;2023-12-22T16:06:39;10.50;99.90